sensor_id;sensor_type;location;lat;lon;timestamp;pressure;altitude;pressure_sealevel;temperature;humidity
15914;BME280;8055;51.930;8.840;2022-10-16T00:01:20;99081.63;;;13.48;100.00
15914;BME280;8055;51.930;8.840;2022-10-16T00:03:47;99078.25;;;13.46;100.00
15914;BME280;8055;51.930;8.840;2022-10-16T00:06:14;99086.88;;;13.49;100.00
15914;BME280;8055;51.930;8.840;2022-10-16T00:08:40;99089.81;;;13.48;100.00
15914;BME280;8055;51.930;8.840;2022-10-16T00:11:17;99089.81;;;13.48;100.00
15914;BME280;8055;51.930;8.840;2022-10-16T00:13:45;99092.97;;;13.45;100.00
15914;BME280;8055;51.930;8.840;2022-10-16T00:16:12;99090.25;;;13.45;100.00
15914;BME280;8055;51.930;8.840;2022-10-16T00:18:38;99095.88;;;13.43;100.00
15914;BME280;8055;51.930;8.840;2022-10-16T00:21:27;99085.41;;;13.40;100.00
15914;BME280;8055;51.930;8.840;2022-10-16T00:23:56;99090.44;;;13.43;100.00
15914;BME280;8055;51.930;8.840;2022-10-16T00:26:22;99085.63;;;13.38;100.00
15914;BME280;8055;51.930;8.840;2022-10-16T00:28:49;99091.06;;;13.38;100.00
15914;BME280;8055;51.930;8.840;2022-10-16T00:31:15;99093.16;;;13.36;100.00
15914;BME280;8055;51.930;8.840;2022-10-16T00:33:41;99092.75;;;13.39;100.00
15914;BME280;8055;51.930;8.840;2022-10-16T00:36:10;99101.13;;;13.38;100.00
15914;BME280;8055;51.930;8.840;2022-10-16T00:38:35;99091.91;;;13.39;100.00
15914;BME280;8055;51.930;8.840;2022-10-16T00:41:02;99096.31;;;13.47;100.00
15914;BME280;8055;51.930;8.840;2022-10-16T00:46:18;99093.16;;;13.43;100.00
15914;BME280;8055;51.930;8.840;2022-10-16T00:48:49;99086.03;;;13.42;100.00
15914;BME280;8055;51.930;8.840;2022-10-16T00:51:17;99074.72;;;13.45;100.00
15914;BME280;8055;51.930;8.840;2022-10-16T00:53:45;99085.19;;;13.41;100.00
15914;BME280;8055;51.930;8.840;2022-10-16T00:56:10;99086.47;;;13.39;100.00
15914;BME280;8055;51.930;8.840;2022-10-16T00:58:36;99090.63;;;13.35;100.00
15914;BME280;8055;51.930;8.840;2022-10-16T01:01:01;99082.66;;;13.40;100.00
15914;BME280;8055;51.930;8.840;2022-10-16T01:03:31;99093.81;;;13.38;100.00
15914;BME280;8055;51.930;8.840;2022-10-16T01:06:17;99095.91;;;13.36;100.00
15914;BME280;8055;51.930;8.840;2022-10-16T01:11:57;99088.34;;;13.38;100.00
15914;BME280;8055;51.930;8.840;2022-10-16T01:17:16;99102.59;;;13.40;100.00
15914;BME280;8055;51.930;8.840;2022-10-16T01:20:03;99109.94;;;13.40;100.00
15914;BME280;8055;51.930;8.840;2022-10-16T01:22:48;99108.69;;;13.36;100.00
15914;BME280;8055;51.930;8.840;2022-10-16T01:25:22;99104.28;;;13.35;100.00
15914;BME280;8055;51.930;8.840;2022-10-16T01:27:50;99104.28;;;13.35;100.00
15914;BME280;8055;51.930;8.840;2022-10-16T01:30:30;99100.28;;;13.37;100.00
15914;BME280;8055;51.930;8.840;2022-10-16T01:33:03;99108.06;;;13.34;100.00
15914;BME280;8055;51.930;8.840;2022-10-16T01:35:36;99116.22;;;13.40;100.00
15914;BME280;8055;51.930;8.840;2022-10-16T01:40:36;99118.34;;;13.38;100.00
15914;BME280;8055;51.930;8.840;2022-10-16T01:43:12;99123.38;;;13.35;100.00
15914;BME280;8055;51.930;8.840;2022-10-16T01:45:40;99128.81;;;13.35;100.00
15914;BME280;8055;51.930;8.840;2022-10-16T01:48:07;99132.19;;;13.37;100.00
15914;BME280;8055;51.930;8.840;2022-10-16T01:50:37;99137.44;;;13.38;100.00
15914;BME280;8055;51.930;8.840;2022-10-16T01:53:06;99133.66;;;13.33;100.00
15914;BME280;8055;51.930;8.840;2022-10-16T01:55:36;99143.31;;;13.35;100.00
15914;BME280;8055;51.930;8.840;2022-10-16T01:58:05;99140.59;;;13.29;100.00
15914;BME280;8055;51.930;8.840;2022-10-16T02:00:32;99139.72;;;13.28;100.00
15914;BME280;8055;51.930;8.840;2022-10-16T02:02:58;99138.28;;;13.26;100.00
15914;BME280;8055;51.930;8.840;2022-10-16T02:05:44;99142.03;;;13.25;100.00
15914;BME280;8055;51.930;8.840;2022-10-16T02:08:10;99138.84;;;13.21;100.00
15914;BME280;8055;51.930;8.840;2022-10-16T02:10:36;99131.97;;;13.25;100.00
15914;BME280;8055;51.930;8.840;2022-10-16T02:13:09;99126.69;;;13.24;100.00
15914;BME280;8055;51.930;8.840;2022-10-16T02:15:36;99138.44;;;13.24;100.00
15914;BME280;8055;51.930;8.840;2022-10-16T02:18:04;99118.94;;;13.14;100.00
15914;BME280;8055;51.930;8.840;2022-10-16T02:20:34;99130.66;;;13.14;100.00
15914;BME280;8055;51.930;8.840;2022-10-16T02:23:03;99122.91;;;13.18;100.00
15914;BME280;8055;51.930;8.840;2022-10-16T02:25:35;99124.38;;;13.14;100.00
15914;BME280;8055;51.930;8.840;2022-10-16T02:28:07;99119.53;;;13.16;100.00
15914;BME280;8055;51.930;8.840;2022-10-16T02:30:35;99119.13;;;13.12;100.00
15914;BME280;8055;51.930;8.840;2022-10-16T02:33:04;99126.28;;;13.13;100.00
15914;BME280;8055;51.930;8.840;2022-10-16T02:35:31;99121.66;;;13.14;100.00
15914;BME280;8055;51.930;8.840;2022-10-16T02:37:57;99122.91;;;13.11;100.00
15914;BME280;8055;51.930;8.840;2022-10-16T02:40:23;99124.16;;;13.09;100.00
15914;BME280;8055;51.930;8.840;2022-10-16T02:42:53;99116.63;;;13.11;100.00
15914;BME280;8055;51.930;8.840;2022-10-16T02:45:20;99118.28;;;13.12;100.00
15914;BME280;8055;51.930;8.840;2022-10-16T02:47:45;99123.13;;;13.16;100.00
15914;BME280;8055;51.930;8.840;2022-10-16T02:50:11;99128.78;;;13.22;100.00
15914;BME280;8055;51.930;8.840;2022-10-16T02:52:36;99120.41;;;13.16;100.00
15914;BME280;8055;51.930;8.840;2022-10-16T02:55:02;99119.13;;;13.19;100.00
15914;BME280;8055;51.930;8.840;2022-10-16T02:57:27;99118.09;;;13.20;100.00
15914;BME280;8055;51.930;8.840;2022-10-16T02:59:53;99119.78;;;13.21;100.00
15914;BME280;8055;51.930;8.840;2022-10-16T03:02:18;99103.00;;;13.17;100.00
15914;BME280;8055;51.930;8.840;2022-10-16T03:04:44;99125.88;;;13.23;100.00
15914;BME280;8055;51.930;8.840;2022-10-16T03:07:09;99109.91;;;13.20;100.00
15914;BME280;8055;51.930;8.840;2022-10-16T03:09:34;99120.41;;;13.16;100.00
15914;BME280;8055;51.930;8.840;2022-10-16T03:12:00;99127.31;;;13.19;100.00
15914;BME280;8055;51.930;8.840;2022-10-16T03:14:25;99126.28;;;13.20;100.00
15914;BME280;8055;51.930;8.840;2022-10-16T03:16:51;99130.25;;;13.24;100.00
15914;BME280;8055;51.930;8.840;2022-10-16T03:19:17;99135.56;;;13.32;100.00
15914;BME280;8055;51.930;8.840;2022-10-16T03:21:43;99136.16;;;13.34;100.00
15914;BME280;8055;51.930;8.840;2022-10-16T03:24:08;99148.13;;;13.33;100.00
15914;BME280;8055;51.930;8.840;2022-10-16T03:26:33;99154.84;;;13.31;100.00
15914;BME280;8055;51.930;8.840;2022-10-16T03:28:59;99141.00;;;13.26;100.00
15914;BME280;8055;51.930;8.840;2022-10-16T03:31:24;99144.34;;;13.28;100.00
15914;BME280;8055;51.930;8.840;2022-10-16T03:33:49;99128.41;;;13.38;100.00
15914;BME280;8055;51.930;8.840;2022-10-16T03:36:15;99132.00;;;13.38;100.00
15914;BME280;8055;51.930;8.840;2022-10-16T03:38:40;99130.50;;;13.36;100.00
15914;BME280;8055;51.930;8.840;2022-10-16T03:41:05;99132.19;;;13.37;100.00
15914;BME280;8055;51.930;8.840;2022-10-16T03:43:33;99118.56;;;13.30;100.00
15914;BME280;8055;51.930;8.840;2022-10-16T03:45:58;99132.41;;;13.29;100.00
15914;BME280;8055;51.930;8.840;2022-10-16T03:48:23;99134.28;;;13.28;100.00
15914;BME280;8055;51.930;8.840;2022-10-16T03:50:49;99139.72;;;13.28;100.00
15914;BME280;8055;51.930;8.840;2022-10-16T03:53:15;99132.41;;;13.29;100.00
15914;BME280;8055;51.930;8.840;2022-10-16T03:55:41;99139.50;;;13.23;100.00
15914;BME280;8055;51.930;8.840;2022-10-16T03:58:07;99150.59;;;13.22;100.00
15914;BME280;8055;51.930;8.840;2022-10-16T04:00:32;99149.81;;;13.34;100.00
15914;BME280;8055;51.930;8.840;2022-10-16T04:02:58;99154.00;;;13.30;100.00
15914;BME280;8055;51.930;8.840;2022-10-16T04:05:23;99152.75;;;13.26;100.00
15914;BME280;8055;51.930;8.840;2022-10-16T04:07:49;99146.84;;;13.23;100.00
15914;BME280;8055;51.930;8.840;2022-10-16T04:10:14;99152.72;;;13.19;100.00
15914;BME280;8055;51.930;8.840;2022-10-16T04:12:39;99143.06;;;13.24;100.00
15914;BME280;8055;51.930;8.840;2022-10-16T04:15:05;99138.91;;;13.28;100.00
15914;BME280;8055;51.930;8.840;2022-10-16T04:17:31;99145.78;;;13.24;100.00
15914;BME280;8055;51.930;8.840;2022-10-16T04:19:56;99152.91;;;13.18;100.00
15914;BME280;8055;51.930;8.840;2022-10-16T04:22:21;99144.34;;;13.28;100.00
15914;BME280;8055;51.930;8.840;2022-10-16T04:24:47;99131.31;;;13.23;100.00
15914;BME280;8055;51.930;8.840;2022-10-16T04:27:12;99141.59;;;13.21;100.00
15914;BME280;8055;51.930;8.840;2022-10-16T04:29:37;99142.41;;;13.15;100.00
15914;BME280;8055;51.930;8.840;2022-10-16T04:32:03;99141.81;;;13.19;100.00
15914;BME280;8055;51.930;8.840;2022-10-16T04:34:28;99148.09;;;13.20;100.00
15914;BME280;8055;51.930;8.840;2022-10-16T04:36:53;99161.50;;;13.22;100.00
15914;BME280;8055;51.930;8.840;2022-10-16T04:39:19;99159.84;;;13.20;100.00
15914;BME280;8055;51.930;8.840;2022-10-16T04:41:44;99173.47;;;13.20;100.00
15914;BME280;8055;51.930;8.840;2022-10-16T04:44:10;99182.50;;;13.21;100.00
15914;BME280;8055;51.930;8.840;2022-10-16T04:46:35;99182.28;;;13.23;100.00
15914;BME280;8055;51.930;8.840;2022-10-16T04:49:00;99181.66;;;13.20;100.00
15914;BME280;8055;51.930;8.840;2022-10-16T04:51:26;99177.25;;;13.19;100.00
15914;BME280;8055;51.930;8.840;2022-10-16T04:53:53;99169.91;;;13.20;100.00
15914;BME280;8055;51.930;8.840;2022-10-16T04:56:18;99184.16;;;13.22;100.00
15914;BME280;8055;51.930;8.840;2022-10-16T04:58:43;99177.88;;;13.22;100.00
15914;BME280;8055;51.930;8.840;2022-10-16T05:01:09;99179.56;;;13.23;100.00
15914;BME280;8055;51.930;8.840;2022-10-16T05:03:34;99175.78;;;13.24;100.00
15914;BME280;8055;51.930;8.840;2022-10-16T05:06:00;99197.78;;;13.22;100.00
15914;BME280;8055;51.930;8.840;2022-10-16T05:08:25;99192.75;;;13.19;100.00
15914;BME280;8055;51.930;8.840;2022-10-16T05:10:50;99183.31;;;13.22;100.00
15914;BME280;8055;51.930;8.840;2022-10-16T05:13:16;99185.22;;;13.21;100.00
15914;BME280;8055;51.930;8.840;2022-10-16T05:15:41;99195.28;;;13.20;100.00
15914;BME280;8055;51.930;8.840;2022-10-16T05:18:08;99195.47;;;13.19;100.00
15914;BME280;8055;51.930;8.840;2022-10-16T05:20:34;99197.19;;;13.20;100.00
15914;BME280;8055;51.930;8.840;2022-10-16T05:22:59;99198.66;;;13.23;100.00
15914;BME280;8055;51.930;8.840;2022-10-16T05:25:25;99180.03;;;13.26;100.00
15914;BME280;8055;51.930;8.840;2022-10-16T05:27:50;99185.25;;;13.28;100.00
15914;BME280;8055;51.930;8.840;2022-10-16T05:30:17;99193.84;;;13.31;100.00
15914;BME280;8055;51.930;8.840;2022-10-16T05:32:46;99207.06;;;13.28;100.00
15914;BME280;8055;51.930;8.840;2022-10-16T05:35:12;99199.72;;;13.28;100.00
15914;BME280;8055;51.930;8.840;2022-10-16T05:37:38;99216.53;;;13.32;100.00
15914;BME280;8055;51.930;8.840;2022-10-16T05:40:03;99199.72;;;13.28;100.00
15914;BME280;8055;51.930;8.840;2022-10-16T05:42:30;99208.56;;;13.37;100.00
15914;BME280;8055;51.930;8.840;2022-10-16T05:44:55;99205.81;;;13.30;100.00
15914;BME280;8055;51.930;8.840;2022-10-16T05:47:21;99202.44;;;13.28;100.00
15914;BME280;8055;51.930;8.840;2022-10-16T05:49:46;99198.69;;;13.29;100.00
15914;BME280;8055;51.930;8.840;2022-10-16T05:52:11;99212.94;;;13.31;100.00
15914;BME280;8055;51.930;8.840;2022-10-16T05:54:37;99227.44;;;13.32;100.00
15914;BME280;8055;51.930;8.840;2022-10-16T05:57:02;99224.09;;;13.36;100.00
15914;BME280;8055;51.930;8.840;2022-10-16T05:59:28;99228.28;;;13.39;100.00
15914;BME280;8055;51.930;8.840;2022-10-16T06:01:53;99226.19;;;13.41;100.00
15914;BME280;8055;51.930;8.840;2022-10-16T06:04:18;99236.91;;;13.42;100.00
15914;BME280;8055;51.930;8.840;2022-10-16T06:06:44;99236.25;;;13.47;100.00
15914;BME280;8055;51.930;8.840;2022-10-16T06:09:09;99240.69;;;13.41;100.00
15914;BME280;8055;51.930;8.840;2022-10-16T06:11:35;99235.22;;;13.41;100.00
15914;BME280;8055;51.930;8.840;2022-10-16T06:14:02;99249.28;;;13.38;100.00
15914;BME280;8055;51.930;8.840;2022-10-16T06:16:31;99250.13;;;13.46;100.00
15914;BME280;8055;51.930;8.840;2022-10-16T06:18:57;99262.69;;;13.40;100.00
15914;BME280;8055;51.930;8.840;2022-10-16T06:21:26;99251.78;;;13.40;100.00
15914;BME280;8055;51.930;8.840;2022-10-16T06:23:52;99272.56;;;13.41;100.00
15914;BME280;8055;51.930;8.840;2022-10-16T06:26:19;99269.22;;;13.39;100.00
15914;BME280;8055;51.930;8.840;2022-10-16T06:28:46;99272.78;;;13.39;100.00
15914;BME280;8055;51.930;8.840;2022-10-16T06:31:12;99276.34;;;13.40;100.00
15914;BME280;8055;51.930;8.840;2022-10-16T06:33:38;99279.72;;;13.49;100.00
15914;BME280;8055;51.930;8.840;2022-10-16T06:36:06;99273.22;;;13.50;100.00
15914;BME280;8055;51.930;8.840;2022-10-16T06:38:32;99273.63;;;13.53;100.00
15914;BME280;8055;51.930;8.840;2022-10-16T06:40:58;99267.75;;;13.50;100.00
15914;BME280;8055;51.930;8.840;2022-10-16T06:43:24;99284.13;;;13.50;100.00
15914;BME280;8055;51.930;8.840;2022-10-16T06:45:53;99279.97;;;13.60;100.00
15914;BME280;8055;51.930;8.840;2022-10-16T06:48:19;99296.94;;;13.62;100.00
15914;BME280;8055;51.930;8.840;2022-10-16T06:51:02;99299.47;;;13.64;100.00
15914;BME280;8055;51.930;8.840;2022-10-16T06:53:30;99307.03;;;13.62;100.00
15914;BME280;8055;51.930;8.840;2022-10-16T06:55:56;99294.44;;;13.68;100.00
15914;BME280;8055;51.930;8.840;2022-10-16T06:58:22;99298.66;;;13.70;100.00
15914;BME280;8055;51.930;8.840;2022-10-16T07:00:47;99306.44;;;13.73;100.00
15914;BME280;8055;51.930;8.840;2022-10-16T07:03:13;99310.41;;;13.77;100.00
15914;BME280;8055;51.930;8.840;2022-10-16T07:05:40;99327.63;;;13.78;100.00
15914;BME280;8055;51.930;8.840;2022-10-16T07:08:05;99340.00;;;13.74;100.00
15914;BME280;8055;51.930;8.840;2022-10-16T07:10:31;99335.81;;;13.71;100.00
15914;BME280;8055;51.930;8.840;2022-10-16T07:12:57;99320.69;;;13.75;100.00
15914;BME280;8055;51.930;8.840;2022-10-16T07:15:24;99338.13;;;13.81;100.00
15914;BME280;8055;51.930;8.840;2022-10-16T07:17:49;99335.63;;;13.79;100.00
15914;BME280;8055;51.930;8.840;2022-10-16T07:20:15;99338.56;;;13.84;100.00
15914;BME280;8055;51.930;8.840;2022-10-16T07:22:40;99335.63;;;13.73;100.00
15914;BME280;8055;51.930;8.840;2022-10-16T07:25:06;99345.91;;;13.77;100.00
15914;BME280;8055;51.930;8.840;2022-10-16T07:27:32;99354.09;;;13.91;100.00
15914;BME280;8055;51.930;8.840;2022-10-16T07:29:57;99355.78;;;13.85;100.00
15914;BME280;8055;51.930;8.840;2022-10-16T07:32:22;99355.78;;;13.85;100.00
15914;BME280;8055;51.930;8.840;2022-10-16T07:34:49;99364.81;;;13.85;100.00
15914;BME280;8055;51.930;8.840;2022-10-16T07:37:14;99360.41;;;13.91;100.00
15914;BME280;8055;51.930;8.840;2022-10-16T07:39:39;99373.63;;;13.87;100.00
15914;BME280;8055;51.930;8.840;2022-10-16T07:42:05;99373.63;;;13.94;100.00
15914;BME280;8055;51.930;8.840;2022-10-16T07:44:30;99379.97;;;13.95;100.00
15914;BME280;8055;51.930;8.840;2022-10-16T07:46:55;99380.41;;;14.05;100.00
15914;BME280;8055;51.930;8.840;2022-10-16T07:49:21;99396.97;;;14.03;100.00
15914;BME280;8055;51.930;8.840;2022-10-16T07:51:46;99391.53;;;14.10;100.00
15914;BME280;8055;51.930;8.840;2022-10-16T07:54:12;99402.44;;;14.10;100.00
15914;BME280;8055;51.930;8.840;2022-10-16T07:56:37;99404.34;;;14.16;100.00
15914;BME280;8055;51.930;8.840;2022-10-16T07:59:02;99414.66;;;14.27;100.00
15914;BME280;8055;51.930;8.840;2022-10-16T08:01:28;99416.38;;;14.42;100.00
15914;BME280;8055;51.930;8.840;2022-10-16T08:03:53;99424.16;;;14.45;100.00
15914;BME280;8055;51.930;8.840;2022-10-16T08:06:20;99414.91;;;14.46;100.00
15914;BME280;8055;51.930;8.840;2022-10-16T08:08:45;99420.38;;;14.46;100.00
15914;BME280;8055;51.930;8.840;2022-10-16T08:11:11;99414.91;;;14.46;100.00
15914;BME280;8055;51.930;8.840;2022-10-16T08:13:37;99416.16;;;14.50;100.00
15914;BME280;8055;51.930;8.840;2022-10-16T08:16:02;99422.03;;;14.47;100.00
15914;BME280;8055;51.930;8.840;2022-10-16T08:18:34;99418.69;;;14.45;100.00
15914;BME280;8055;51.930;8.840;2022-10-16T08:21:00;99423.94;;;14.40;100.00
15914;BME280;8055;51.930;8.840;2022-10-16T08:23:26;99429.38;;;14.33;100.00
15914;BME280;8055;51.930;8.840;2022-10-16T08:25:52;99423.50;;;14.43;100.00
15914;BME280;8055;51.930;8.840;2022-10-16T08:28:19;99430.66;;;14.37;100.00
15914;BME280;8055;51.930;8.840;2022-10-16T08:30:45;99438.84;;;14.44;100.00
15914;BME280;8055;51.930;8.840;2022-10-16T08:33:10;99423.94;;;14.46;100.00
15914;BME280;8055;51.930;8.840;2022-10-16T08:35:35;99441.41;;;14.58;100.00
15914;BME280;8055;51.930;8.840;2022-10-16T08:38:05;99442.66;;;14.69;100.00
15914;BME280;8055;51.930;8.840;2022-10-16T08:40:33;99442.25;;;14.79;100.00
15914;BME280;8055;51.930;8.840;2022-10-16T08:50:45;99453.38;;;15.11;100.00
15914;BME280;8055;51.930;8.840;2022-10-16T08:53:18;99468.06;;;15.23;100.00
15914;BME280;8055;51.930;8.840;2022-10-16T08:55:53;99463.44;;;15.30;100.00
15914;BME280;8055;51.930;8.840;2022-10-16T08:58:23;99461.53;;;15.37;100.00
15914;BME280;8055;51.930;8.840;2022-10-16T09:00:56;99466.13;;;15.50;100.00
15914;BME280;8055;51.930;8.840;2022-10-16T09:06:06;99478.31;;;15.61;100.00
15914;BME280;8055;51.930;8.840;2022-10-16T09:11:36;99490.91;;;15.82;100.00
15914;BME280;8055;51.930;8.840;2022-10-16T09:20:25;99498.38;;;16.06;100.00
15914;BME280;8055;51.930;8.840;2022-10-16T09:23:10;99500.94;;;16.01;100.00
15914;BME280;8055;51.930;8.840;2022-10-16T09:25:39;99501.59;;;15.96;100.00
15914;BME280;8055;51.930;8.840;2022-10-16T09:28:07;99516.53;;;16.01;100.00
15914;BME280;8055;51.930;8.840;2022-10-16T09:30:33;99507.72;;;15.99;100.00
15914;BME280;8055;51.930;8.840;2022-10-16T09:32:59;99498.81;;;16.03;100.00
15914;BME280;8055;51.930;8.840;2022-10-16T09:35:33;99501.13;;;16.06;100.00
15914;BME280;8055;51.930;8.840;2022-10-16T09:38:00;99516.50;;;16.07;100.00
15914;BME280;8055;51.930;8.840;2022-10-16T09:40:32;99507.88;;;16.04;100.00
15914;BME280;8055;51.930;8.840;2022-10-16T09:43:22;99508.28;;;16.07;100.00
15914;BME280;8055;51.930;8.840;2022-10-16T09:46:19;99512.72;;;16.08;100.00
15914;BME280;8055;51.930;8.840;2022-10-16T09:48:50;99516.13;;;15.97;100.00
15914;BME280;8055;51.930;8.840;2022-10-16T09:51:34;99527.72;;;15.99;100.00
15914;BME280;8055;51.930;8.840;2022-10-16T09:56:37;99515.13;;;15.85;100.00
15914;BME280;8055;51.930;8.840;2022-10-16T09:59:15;99525.19;;;15.98;100.00
15914;BME280;8055;51.930;8.840;2022-10-16T10:01:47;99521.09;;;16.13;100.00
15914;BME280;8055;51.930;8.840;2022-10-16T10:04:13;99524.41;;;16.29;100.00
15914;BME280;8055;51.930;8.840;2022-10-16T10:06:45;99530.28;;;16.39;100.00
15914;BME280;8055;51.930;8.840;2022-10-16T10:09:24;99533.38;;;16.49;100.00
15914;BME280;8055;51.930;8.840;2022-10-16T10:11:57;99535.88;;;16.51;100.00
15914;BME280;8055;51.930;8.840;2022-10-16T10:14:40;99532.59;;;16.74;100.00
15914;BME280;8055;51.930;8.840;2022-10-16T10:17:17;99532.69;;;16.92;100.00
15914;BME280;8055;51.930;8.840;2022-10-16T10:22:41;99533.50;;;17.24;100.00
15914;BME280;8055;51.930;8.840;2022-10-16T10:30:27;99547.19;;;17.49;100.00
15914;BME280;8055;51.930;8.840;2022-10-16T10:33:21;99561.53;;;17.51;100.00
15914;BME280;8055;51.930;8.840;2022-10-16T10:35:58;99549.94;;;17.49;100.00
15914;BME280;8055;51.930;8.840;2022-10-16T10:43:55;99551.53;;;17.57;100.00
15914;BME280;8055;51.930;8.840;2022-10-16T10:52:10;99554.97;;;17.77;100.00
15914;BME280;8055;51.930;8.840;2022-10-16T10:54:55;99555.47;;;17.86;100.00
15914;BME280;8055;51.930;8.840;2022-10-16T10:57:44;99550.84;;;18.05;100.00
15914;BME280;8055;51.930;8.840;2022-10-16T11:00:42;99549.22;;;18.16;100.00
15914;BME280;8055;51.930;8.840;2022-10-16T11:05:50;99561.38;;;17.90;100.00
15914;BME280;8055;51.930;8.840;2022-10-16T11:08:41;99566.00;;;17.71;100.00
15914;BME280;8055;51.930;8.840;2022-10-16T11:11:16;99557.94;;;17.51;100.00
15914;BME280;8055;51.930;8.840;2022-10-16T11:16:23;99567.44;;;17.30;100.00
15914;BME280;8055;51.930;8.840;2022-10-16T11:21:49;99573.31;;;17.08;100.00
15914;BME280;8055;51.930;8.840;2022-10-16T11:24:23;99574.22;;;17.27;100.00
15914;BME280;8055;51.930;8.840;2022-10-16T11:26:55;99571.63;;;17.32;100.00
15914;BME280;8055;51.930;8.840;2022-10-16T11:29:28;99574.72;;;17.43;100.00
15914;BME280;8055;51.930;8.840;2022-10-16T11:32:00;99568.03;;;17.32;100.00
15914;BME280;8055;51.930;8.840;2022-10-16T11:34:35;99573.19;;;17.22;100.00
15914;BME280;8055;51.930;8.840;2022-10-16T11:37:23;99570.44;;;17.22;100.00
15914;BME280;8055;51.930;8.840;2022-10-16T11:39:52;99581.63;;;17.27;100.00
15914;BME280;8055;51.930;8.840;2022-10-16T11:42:27;99570.16;;;17.55;100.00
15914;BME280;8055;51.930;8.840;2022-10-16T11:50:25;99571.00;;;17.55;100.00
15914;BME280;8055;51.930;8.840;2022-10-16T11:55:42;99562.41;;;17.45;100.00
15914;BME280;8055;51.930;8.840;2022-10-16T12:00:47;99572.13;;;17.91;100.00
15914;BME280;8055;51.930;8.840;2022-10-16T12:03:24;99567.28;;;18.12;100.00
15914;BME280;8055;51.930;8.840;2022-10-16T12:08:48;99568.59;;;18.39;100.00
15914;BME280;8055;51.930;8.840;2022-10-16T12:11:32;99564.66;;;18.65;100.00
15914;BME280;8055;51.930;8.840;2022-10-16T12:14:17;99568.78;;;18.75;100.00
15914;BME280;8055;51.930;8.840;2022-10-16T12:17:04;99569.31;;;18.95;100.00
15914;BME280;8055;51.930;8.840;2022-10-16T12:19:32;99575.38;;;19.15;100.00
15914;BME280;8055;51.930;8.840;2022-10-16T12:21:59;99575.38;;;19.27;100.00
15914;BME280;8055;51.930;8.840;2022-10-16T12:24:38;99584.13;;;19.36;100.00
15914;BME280;8055;51.930;8.840;2022-10-16T12:27:28;99576.72;;;19.48;100.00
15914;BME280;8055;51.930;8.840;2022-10-16T12:30:03;99591.09;;;19.50;100.00
15914;BME280;8055;51.930;8.840;2022-10-16T12:32:37;99585.00;;;19.60;100.00
15914;BME280;8055;51.930;8.840;2022-10-16T12:35:05;99590.66;;;19.65;100.00
15914;BME280;8055;51.930;8.840;2022-10-16T12:37:41;99589.06;;;19.57;100.00
15914;BME280;8055;51.930;8.840;2022-10-16T12:40:16;99597.69;;;19.49;100.00
15914;BME280;8055;51.930;8.840;2022-10-16T12:42:48;99602.09;;;19.38;100.00
15914;BME280;8055;51.930;8.840;2022-10-16T12:45:31;99616.38;;;19.05;100.00
15914;BME280;8055;51.930;8.840;2022-10-16T12:47:58;99609.34;;;18.79;100.00
15914;BME280;8055;51.930;8.840;2022-10-16T12:50:33;99606.59;;;18.61;100.00
15914;BME280;8055;51.930;8.840;2022-10-16T12:53:00;99612.09;;;18.61;100.00
15914;BME280;8055;51.930;8.840;2022-10-16T12:55:34;99616.53;;;18.80;100.00
15914;BME280;8055;51.930;8.840;2022-10-16T12:58:23;99612.56;;;19.06;100.00
15914;BME280;8055;51.930;8.840;2022-10-16T13:01:03;99608.41;;;18.85;100.00
15914;BME280;8055;51.930;8.840;2022-10-16T13:03:52;99619.13;;;18.93;100.00
15914;BME280;8055;51.930;8.840;2022-10-16T13:09:10;99621.03;;;19.05;100.00
15914;BME280;8055;51.930;8.840;2022-10-16T13:12:01;99611.66;;;19.24;100.00
15914;BME280;8055;51.930;8.840;2022-10-16T13:14:55;99630.28;;;19.10;100.00
15914;BME280;8055;51.930;8.840;2022-10-16T13:20:03;99644.25;;;18.97;100.00
15914;BME280;8055;51.930;8.840;2022-10-16T13:22:42;99643.25;;;18.91;100.00
15914;BME280;8055;51.930;8.840;2022-10-16T13:26:13;99643.81;;;18.82;100.00
15914;BME280;8055;51.930;8.840;2022-10-16T13:28:21;99652.28;;;18.80;100.00
15914;BME280;8055;51.930;8.840;2022-10-16T13:30:53;99644.66;;;18.82;100.00
15914;BME280;8055;51.930;8.840;2022-10-16T13:33:35;99651.00;;;18.83;100.00
15914;BME280;8055;51.930;8.840;2022-10-16T13:36:01;99654.47;;;18.78;100.00
15914;BME280;8055;51.930;8.840;2022-10-16T13:38:29;99652.31;;;18.43;100.00
15914;BME280;8055;51.930;8.840;2022-10-16T13:41:04;99648.66;;;18.31;100.00
15914;BME280;8055;51.930;8.840;2022-10-16T13:43:47;99644.75;;;18.20;100.00
15914;BME280;8055;51.930;8.840;2022-10-16T13:46:19;99645.72;;;18.08;100.00
15914;BME280;8055;51.930;8.840;2022-10-16T13:49:00;99651.53;;;17.99;100.00
15914;BME280;8055;51.930;8.840;2022-10-16T13:51:27;99645.25;;;17.92;100.00
15914;BME280;8055;51.930;8.840;2022-10-16T13:53:54;99659.16;;;17.97;100.00
15914;BME280;8055;51.930;8.840;2022-10-16T13:56:22;99666.78;;;17.95;100.00
15914;BME280;8055;51.930;8.840;2022-10-16T13:59:02;99653.66;;;17.97;100.00
15914;BME280;8055;51.930;8.840;2022-10-16T14:01:33;99650.72;;;17.99;100.00
15914;BME280;8055;51.930;8.840;2022-10-16T14:04:05;99662.28;;;18.01;100.00
15914;BME280;8055;51.930;8.840;2022-10-16T14:06:31;99658.88;;;18.06;100.00
15914;BME280;8055;51.930;8.840;2022-10-16T14:09:06;99667.59;;;18.21;100.00
15914;BME280;8055;51.930;8.840;2022-10-16T14:11:33;99663.47;;;18.12;100.00
15914;BME280;8055;51.930;8.840;2022-10-16T14:14:00;99664.97;;;18.08;100.00
15914;BME280;8055;51.930;8.840;2022-10-16T14:16:28;99665.13;;;18.13;100.00
15914;BME280;8055;51.930;8.840;2022-10-16T14:18:57;99659.47;;;18.08;100.00
15914;BME280;8055;51.930;8.840;2022-10-16T14:21:25;99670.78;;;17.99;100.00
15914;BME280;8055;51.930;8.840;2022-10-16T14:23:52;99677.31;;;17.98;100.00
15914;BME280;8055;51.930;8.840;2022-10-16T14:26:20;99670.31;;;18.02;100.00
15914;BME280;8055;51.930;8.840;2022-10-16T14:28:48;99674.75;;;18.03;100.00
15914;BME280;8055;51.930;8.840;2022-10-16T14:31:25;99672.84;;;18.04;100.00
15914;BME280;8055;51.930;8.840;2022-10-16T14:33:51;99685.97;;;18.02;100.00